Time;durP1;ratioP1;P1;durP2;ratioP2;P2;SDS_P1;SDS_P2;PMS_P1;PMS_P2;Temp;Humidity;BMP_temperature;BMP_pressure;BME280_temperature;BME280_humidity;BME280_pressure;Samples;Min_cycle;Max_cycle;Signal;HPM_P1;HPM_P2
2021/03/02 00:00:57;;;;;;;21.40;8.00;;;;;;;;;;6251539;23;20193;-80
2021/03/02 00:04:09;;;;;;;16.30;7.87;;;;;;;;;;6247315;23;20151;-80
2021/03/02 00:07:14;;;;;;;21.57;8.83;;;;;;;;;;6249255;23;20190;-80
2021/03/02 00:10:21;;;;;;;19.97;8.07;;;;;;;;;;6248590;23;20174;-80
2021/03/02 00:13:30;;;;;;;22.83;8.87;;;;;;;;;;6247918;23;20214;-80
2021/03/02 00:16:36;;;;;;;23.60;8.47;;;;;;;;;;6248391;23;20185;-81
2021/03/02 00:19:45;;;;;;;20.87;8.27;;;;;;;;;;6246525;23;20174;-82
2021/03/02 00:22:56;;;;;;;29.93;8.13;;;;;;;;;;6244669;23;20198;-83
2021/03/02 00:26:03;;;;;;;22.63;8.53;;;;;;;;;;6239097;23;20170;-80
2021/03/02 00:29:09;;;;;;;20.13;7.77;;;;;;;;;;6241186;23;20201;-83
2021/03/02 00:32:19;;;;;;;25.33;8.90;;;;;;;;;;6246893;23;20258;-83
2021/03/02 00:35:23;;;;;;;26.67;9.47;;;;;;;;;;6240185;23;20170;-81
2021/03/02 00:38:28;;;;;;;19.37;7.77;;;;;;;;;;6240777;23;20213;-82
2021/03/02 00:41:33;;;;;;;20.27;8.70;;;;;;;;;;6264977;23;20262;-81
2021/03/02 00:44:39;;;;;;;17.00;7.60;;;;;;;;;;6260206;23;20194;-82
2021/03/02 00:47:44;;;;;;;20.60;8.37;;;;;;;;;;6233574;23;20166;-83
2021/03/02 00:50:48;;;;;;;20.33;7.17;;;;;;;;;;6239807;23;20182;-81
2021/03/02 00:53:53;;;;;;;21.90;7.40;;;;;;;;;;6272502;22;20175;-82
2021/03/02 00:56:58;;;;;;;17.53;6.87;;;;;;;;;;6251770;22;20175;-81
2021/03/02 01:00:05;;;;;;;16.17;7.17;;;;;;;;;;6241912;23;20198;-81
2021/03/02 01:03:11;;;;;;;18.80;7.40;;;;;;;;;;6235698;23;20232;-82
2021/03/02 01:06:20;;;;;;;20.63;7.97;;;;;;;;;;6256168;23;20242;-82
2021/03/02 01:13:40;;;;;;;16.37;6.90;;;;;;;;;;6274110;22;20205;-84
2021/03/02 01:16:45;;;;;;;17.93;7.07;;;;;;;;;;6231060;23;20194;-81
2021/03/02 01:19:50;;;;;;;20.07;7.00;;;;;;;;;;6255651;23;20198;-82
2021/03/02 01:22:55;;;;;;;20.17;7.00;;;;;;;;;;6243387;23;20264;-83
2021/03/02 01:28:40;;;;;;;19.03;7.60;;;;;;;;;;6226241;23;20199;-91
2021/03/02 01:31:45;;;;;;;19.00;7.93;;;;;;;;;;6209050;23;20183;-89
2021/03/02 01:34:50;;;;;;;24.87;8.23;;;;;;;;;;6210906;23;20170;-91
2021/03/02 01:37:55;;;;;;;17.60;7.27;;;;;;;;;;6212495;23;20198;-89
2021/03/02 01:41:00;;;;;;;22.80;7.47;;;;;;;;;;6211445;23;20225;-89
2021/03/02 01:44:04;;;;;;;18.37;8.20;;;;;;;;;;6211345;23;20622;-91
2021/03/02 01:47:10;;;;;;;18.57;8.10;;;;;;;;;;6210363;23;20170;-91
2021/03/02 01:50:15;;;;;;;20.57;7.70;;;;;;;;;;6230023;23;20203;-92
2021/03/02 01:53:19;;;;;;;19.07;8.10;;;;;;;;;;6212182;23;20238;-90
2021/03/02 01:56:25;;;;;;;23.67;8.30;;;;;;;;;;6211535;23;20198;-90
2021/03/02 01:59:29;;;;;;;23.47;7.73;;;;;;;;;;6230865;22;20248;-92
2021/03/02 02:02:38;;;;;;;18.67;7.57;;;;;;;;;;6212335;23;20654;-91
2021/03/02 02:05:45;;;;;;;23.90;8.53;;;;;;;;;;6213013;22;20248;-88
2021/03/02 02:08:57;;;;;;;20.83;8.00;;;;;;;;;;6214302;23;20191;-92
2021/03/02 02:12:04;;;;;;;23.93;8.33;;;;;;;;;;6197771;23;20223;-91
2021/03/02 02:15:09;;;;;;;20.30;7.80;;;;;;;;;;6212231;23;20175;-92
2021/03/02 02:18:16;;;;;;;19.63;8.27;;;;;;;;;;6212382;23;20167;-90
2021/03/02 02:21:25;;;;;;;23.13;8.50;;;;;;;;;;6213923;23;20160;-90
2021/03/02 02:24:37;;;;;;;22.33;8.73;;;;;;;;;;6214357;23;20175;-91
2021/03/02 02:27:43;;;;;;;20.57;8.20;;;;;;;;;;6230371;23;20206;-90
2021/03/02 02:30:56;;;;;;;24.57;9.10;;;;;;;;;;6214615;23;20286;-91
2021/03/02 02:34:01;;;;;;;19.93;8.00;;;;;;;;;;6230603;23;20207;-90
2021/03/02 02:37:07;;;;;;;22.53;8.37;;;;;;;;;;6211211;23;20179;-91
2021/03/02 02:40:13;;;;;;;26.97;9.33;;;;;;;;;;6212892;23;20241;-90
2021/03/02 02:43:19;;;;;;;24.80;9.50;;;;;;;;;;6212464;23;20167;-90
2021/03/02 02:46:26;;;;;;;23.50;8.97;;;;;;;;;;6212950;23;20175;-90
2021/03/02 02:49:31;;;;;;;23.00;8.63;;;;;;;;;;6212116;23;20235;-90
2021/03/02 02:52:36;;;;;;;26.10;9.60;;;;;;;;;;6211720;23;20187;-91
2021/03/02 02:55:44;;;;;;;24.47;9.40;;;;;;;;;;6211999;23;20482;-91
2021/03/02 02:58:58;;;;;;;29.53;9.57;;;;;;;;;;6230487;23;20226;-92
2021/03/02 03:02:04;;;;;;;26.13;9.37;;;;;;;;;;6212181;23;20162;-92
2021/03/02 03:05:11;;;;;;;21.80;8.97;;;;;;;;;;6210425;23;20171;-91
2021/03/02 03:08:17;;;;;;;24.40;8.80;;;;;;;;;;6209974;23;20191;-91
2021/03/02 03:11:24;;;;;;;24.20;10.00;;;;;;;;;;6210452;23;20171;-91
2021/03/02 03:14:32;;;;;;;23.80;8.93;;;;;;;;;;6210771;23;20171;-91
2021/03/02 03:17:38;;;;;;;21.20;8.30;;;;;;;;;;6211524;23;20167;-91
2021/03/02 03:20:43;;;;;;;23.43;9.17;;;;;;;;;;6210893;23;20156;-91
2021/03/02 03:23:50;;;;;;;23.30;8.63;;;;;;;;;;6228959;23;20167;-90
2021/03/02 03:26:55;;;;;;;26.83;9.13;;;;;;;;;;6210397;23;20190;-89
2021/03/02 03:30:01;;;;;;;23.70;9.33;;;;;;;;;;6209427;23;20237;-93
2021/03/02 03:33:06;;;;;;;25.77;9.67;;;;;;;;;;6210217;23;20318;-90
2021/03/02 03:36:11;;;;;;;21.13;8.50;;;;;;;;;;6209530;23;20210;-90
2021/03/02 03:39:16;;;;;;;37.57;10.17;;;;;;;;;;6210489;23;20170;-89
2021/03/02 03:42:20;;;;;;;27.60;10.13;;;;;;;;;;6209970;23;20166;-91
2021/03/02 03:45:26;;;;;;;28.50;10.53;;;;;;;;;;6210652;23;20167;-90
2021/03/02 03:48:30;;;;;;;31.53;11.27;;;;;;;;;;6210181;23;20194;-93
2021/03/02 03:51:37;;;;;;;24.20;10.23;;;;;;;;;;6228196;23;20171;-92
2021/03/02 03:54:43;;;;;;;30.80;11.30;;;;;;;;;;6210732;23;20212;-92
2021/03/02 03:57:48;;;;;;;31.80;11.20;;;;;;;;;;6228480;23;20195;-91
2021/03/02 04:00:54;;;;;;;25.40;10.57;;;;;;;;;;6210439;23;20171;-92
2021/03/02 04:03:59;;;;;;;33.53;11.40;;;;;;;;;;6209907;23;20155;-91
2021/03/02 04:07:04;;;;;;;28.27;10.83;;;;;;;;;;6210432;23;20212;-89
2021/03/02 04:10:09;;;;;;;31.77;11.53;;;;;;;;;;6212958;23;20194;-91
2021/03/02 04:13:14;;;;;;;32.17;11.83;;;;;;;;;;6210674;23;20211;-90
2021/03/02 04:16:20;;;;;;;33.57;11.97;;;;;;;;;;6209619;23;20182;-91
2021/03/02 04:19:32;;;;;;;33.90;12.13;;;;;;;;;;6210434;23;20297;-91
2021/03/02 04:22:38;;;;;;;32.07;12.40;;;;;;;;;;6210210;23;20212;-90
2021/03/02 04:25:42;;;;;;;34.93;13.37;;;;;;;;;;6209686;23;20167;-89
2021/03/02 04:28:47;;;;;;;35.83;13.27;;;;;;;;;;6210790;23;20170;-89
2021/03/02 04:31:53;;;;;;;37.40;12.77;;;;;;;;;;6211159;23;20210;-90
2021/03/02 04:34:58;;;;;;;36.67;12.93;;;;;;;;;;6210118;23;20198;-90
2021/03/02 04:38:02;;;;;;;26.87;11.60;;;;;;;;;;6210390;23;20161;-91
2021/03/02 04:41:07;;;;;;;32.50;12.23;;;;;;;;;;6210286;23;20171;-90
2021/03/02 04:44:12;;;;;;;43.97;12.57;;;;;;;;;;6210664;23;20191;-90
2021/03/02 04:47:17;;;;;;;34.63;11.83;;;;;;;;;;6210646;23;20171;-91
2021/03/02 04:50:22;;;;;;;30.33;12.07;;;;;;;;;;6211480;23;20170;-90
2021/03/02 04:53:28;;;;;;;31.57;11.77;;;;;;;;;;6211366;23;20230;-91
2021/03/02 04:56:33;;;;;;;28.33;10.83;;;;;;;;;;6209566;23;20175;-90
2021/03/02 04:59:38;;;;;;;28.77;10.93;;;;;;;;;;6209889;23;20175;-90
2021/03/02 05:03:11;;;;;;;33.83;11.30;;;;;;;;;;6208613;23;20210;-90
2021/03/02 05:06:16;;;;;;;37.30;11.53;;;;;;;;;;6209543;23;20218;-90
2021/03/02 05:09:20;;;;;;;29.37;10.27;;;;;;;;;;6211552;23;20178;-91
2021/03/02 05:12:27;;;;;;;38.53;11.83;;;;;;;;;;6230722;23;20202;-93
2021/03/02 05:15:32;;;;;;;33.50;11.63;;;;;;;;;;6212912;23;20190;-89
2021/03/02 05:18:36;;;;;;;34.93;12.43;;;;;;;;;;6212822;23;20187;-91
2021/03/02 05:21:42;;;;;;;34.10;12.77;;;;;;;;;;6212728;23;20163;-90
2021/03/02 05:24:47;;;;;;;61.70;13.00;;;;;;;;;;6214298;23;20225;-91
2021/03/02 05:28:21;;;;;;;46.13;13.27;;;;;;;;;;6212590;23;20175;-91
2021/03/02 05:31:25;;;;;;;47.20;12.47;;;;;;;;;;6211787;23;20186;-89
2021/03/02 05:34:30;;;;;;;39.27;14.20;;;;;;;;;;6213120;23;20171;-90
2021/03/02 05:37:35;;;;;;;36.87;13.73;;;;;;;;;;6213303;23;20236;-91
2021/03/02 05:40:40;;;;;;;30.40;11.87;;;;;;;;;;6213608;23;20303;-91
2021/03/02 05:43:45;;;;;;;34.17;12.67;;;;;;;;;;6211651;23;20200;-91
2021/03/02 05:46:50;;;;;;;37.87;13.83;;;;;;;;;;6211976;23;20224;-91
2021/03/02 05:49:54;;;;;;;33.13;12.93;;;;;;;;;;6215826;23;20171;-90
2021/03/02 05:53:01;;;;;;;32.53;12.33;;;;;;;;;;6213058;23;20282;-91
2021/03/02 05:56:07;;;;;;;41.17;13.47;;;;;;;;;;6212267;23;20167;-91
2021/03/02 05:59:11;;;;;;;35.80;13.80;;;;;;;;;;6211240;23;20166;-90
2021/03/02 06:02:16;;;;;;;42.77;12.63;;;;;;;;;;6209919;23;20209;-91
2021/03/02 06:05:20;;;;;;;36.50;13.00;;;;;;;;;;6228492;23;20171;-90
2021/03/02 06:08:26;;;;;;;37.17;12.53;;;;;;;;;;6211878;23;20170;-92
2021/03/02 06:11:31;;;;;;;37.27;13.03;;;;;;;;;;6212084;23;20222;-90
2021/03/02 06:14:36;;;;;;;31.53;12.57;;;;;;;;;;6212869;23;20605;-91
2021/03/02 06:17:42;;;;;;;43.17;14.17;;;;;;;;;;6215498;22;20163;-93
2021/03/02 06:20:47;;;;;;;35.50;13.30;;;;;;;;;;6212467;23;20657;-91
2021/03/02 06:23:53;;;;;;;33.30;12.57;;;;;;;;;;6211665;23;20182;-92
2021/03/02 06:27:06;;;;;;;43.77;14.13;;;;;;;;;;6212436;23;20264;-91
2021/03/02 06:30:11;;;;;;;35.37;13.13;;;;;;;;;;6211298;23;20266;-90
2021/03/02 06:33:19;;;;;;;40.60;14.23;;;;;;;;;;6210924;23;20194;-90
2021/03/02 06:36:23;;;;;;;36.67;13.17;;;;;;;;;;6211688;23;20251;-88
2021/03/02 06:39:31;;;;;;;36.80;13.70;;;;;;;;;;6211238;23;20191;-91
2021/03/02 06:42:37;;;;;;;41.60;13.30;;;;;;;;;;6212111;23;20174;-90
2021/03/02 06:45:49;;;;;;;39.10;14.20;;;;;;;;;;6213549;23;20171;-89
2021/03/02 06:48:56;;;;;;;48.20;15.83;;;;;;;;;;6214218;23;20282;-91
2021/03/02 06:52:11;;;;;;;51.53;17.33;;;;;;;;;;6213067;23;20190;-90
2021/03/02 06:55:26;;;;;;;48.70;17.23;;;;;;;;;;6213818;23;20587;-91
2021/03/02 06:58:30;;;;;;;45.97;16.30;;;;;;;;;;6213283;23;20187;-92
2021/03/02 07:01:36;;;;;;;41.40;15.53;;;;;;;;;;6217521;22;20146;-91
2021/03/02 07:04:41;;;;;;;49.90;15.37;;;;;;;;;;6214145;23;20164;-90
2021/03/02 07:07:47;;;;;;;43.80;15.83;;;;;;;;;;6215314;23;20171;-93
2021/03/02 07:10:53;;;;;;;47.93;16.63;;;;;;;;;;6233327;23;20179;-91
2021/03/02 07:14:00;;;;;;;47.77;16.90;;;;;;;;;;6217674;23;20234;-93
2021/03/02 07:17:10;;;;;;;49.43;19.00;;;;;;;;;;6215989;23;20216;-89
2021/03/02 07:20:17;;;;;;;49.53;17.10;;;;;;;;;;6214680;23;20174;-91
2021/03/02 07:23:26;;;;;;;48.27;18.37;;;;;;;;;;6216364;23;20182;-90
2021/03/02 07:26:33;;;;;;;49.53;17.90;;;;;;;;;;6219287;23;20175;-91
2021/03/02 07:29:39;;;;;;;44.77;18.00;;;;;;;;;;6216935;23;20166;-91
2021/03/02 07:32:44;;;;;;;43.90;16.73;;;;;;;;;;6216395;23;20179;-90
2021/03/02 07:35:50;;;;;;;43.00;15.63;;;;;;;;;;6215864;22;20190;-91
2021/03/02 07:39:10;;;;;;;46.67;17.10;;;;;;;;;;6215508;23;20159;-90
2021/03/02 07:42:26;;;;;;;69.60;22.67;;;;;;;;;;6214650;23;20619;-92
2021/03/02 12:19:07;;;;;;;52.00;18.40;;;;;;;;;;6248640;22;20226;-81
2021/03/02 12:22:11;;;;;;;44.53;18.60;;;;;;;;;;6280979;22;20181;-78
2021/03/02 12:25:16;;;;;;;45.73;18.20;;;;;;;;;;6281359;22;20170;-80
2021/03/02 12:28:21;;;;;;;45.03;18.37;;;;;;;;;;6272800;22;20165;-79
2021/03/02 12:31:26;;;;;;;48.77;18.87;;;;;;;;;;6268744;22;20677;-80
2021/03/02 12:34:32;;;;;;;45.37;17.90;;;;;;;;;;6271005;22;20193;-80
2021/03/02 12:37:37;;;;;;;53.13;19.65;;;;;;;;;;6272291;22;20221;-82
2021/03/02 12:40:41;;;;;;;49.75;18.48;;;;;;;;;;6268438;22;20177;-81
2021/03/02 12:43:46;;;;;;;51.43;19.63;;;;;;;;;;6285541;22;20169;-80
2021/03/02 12:46:51;;;;;;;57.77;19.83;;;;;;;;;;6287259;22;20252;-81
2021/03/02 12:49:57;;;;;;;55.23;20.07;;;;;;;;;;6286737;22;20240;-81
2021/03/02 12:53:01;;;;;;;49.63;19.60;;;;;;;;;;6268162;22;20265;-81
2021/03/02 12:56:06;;;;;;;46.95;19.25;;;;;;;;;;6287297;22;20259;-81
2021/03/02 12:59:10;;;;;;;50.10;18.02;;;;;;;;;;6268333;22;20176;-80
2021/03/02 13:02:14;;;;;;;53.50;20.63;;;;;;;;;;6274321;22;20169;-81
2021/03/02 13:05:20;;;;;;;55.10;20.05;;;;;;;;;;6270718;22;20201;-81
2021/03/02 13:08:24;;;;;;;62.90;21.00;;;;;;;;;;6290720;22;20535;-79
2021/03/02 13:11:29;;;;;;;60.33;20.77;;;;;;;;;;6279995;22;20216;-80
2021/03/02 13:14:35;;;;;;;52.22;20.25;;;;;;;;;;6296932;22;20192;-81
2021/03/02 13:17:40;;;;;;;48.95;20.13;;;;;;;;;;6296066;22;20260;-81
2021/03/02 13:20:45;;;;;;;63.28;20.00;;;;;;;;;;6276298;22;20196;-82
2021/03/02 13:23:50;;;;;;;46.50;19.67;;;;;;;;;;6269301;22;20204;-82
2021/03/02 13:26:55;;;;;;;48.53;20.55;;;;;;;;;;6268235;22;20206;-82
2021/03/02 13:30:01;;;;;;;74.85;21.45;;;;;;;;;;6290172;22;20177;-83
2021/03/02 13:33:08;;;;;;;56.97;20.33;;;;;;;;;;6273256;22;20662;-84
2021/03/02 13:36:14;;;;;;;59.28;20.90;;;;;;;;;;6273987;22;20632;-85
2021/03/02 13:39:20;;;;;;;52.97;20.77;;;;;;;;;;6276744;22;20173;-82
2021/03/02 13:42:25;;;;;;;51.97;19.90;;;;;;;;;;6273813;22;20177;-82
2021/03/02 13:45:30;;;;;;;50.83;20.85;;;;;;;;;;6273918;22;20205;-83
2021/03/02 13:48:35;;;;;;;54.97;20.92;;;;;;;;;;6272931;22;20765;-84
2021/03/02 13:51:40;;;;;;;50.40;19.30;;;;;;;;;;6276250;22;20165;-82
2021/03/02 13:54:45;;;;;;;54.78;19.55;;;;;;;;;;6300238;22;20192;-81
2021/03/02 13:57:50;;;;;;;50.20;20.45;;;;;;;;;;6284436;22;20165;-81
2021/03/02 14:00:55;;;;;;;52.38;19.85;;;;;;;;;;6284042;22;20185;-82
2021/03/02 14:04:02;;;;;;;64.18;19.98;;;;;;;;;;6284362;22;20196;-83
2021/03/02 14:07:08;;;;;;;56.17;19.73;;;;;;;;;;6284764;22;20258;-83
2021/03/02 14:10:13;;;;;;;56.53;20.73;;;;;;;;;;6282506;22;20569;-80
2021/03/02 14:13:18;;;;;;;50.08;19.48;;;;;;;;;;6281788;22;20212;-80
2021/03/02 14:16:25;;;;;;;49.10;20.00;;;;;;;;;;6281145;22;20224;-78
2021/03/02 14:19:30;;;;;;;47.85;19.10;;;;;;;;;;6287154;22;20219;-79
2021/03/02 14:22:36;;;;;;;45.75;19.25;;;;;;;;;;6286180;22;20153;-81
2021/03/02 14:25:41;;;;;;;44.35;19.48;;;;;;;;;;6280827;22;20569;-81
2021/03/02 14:28:46;;;;;;;49.08;19.98;;;;;;;;;;6295807;22;20254;-82
2021/03/02 14:31:51;;;;;;;51.75;20.13;;;;;;;;;;6271097;22;20173;-80
2021/03/02 14:34:55;;;;;;;52.22;20.42;;;;;;;;;;6277219;22;20188;-80
2021/03/02 14:38:27;;;;;;;49.00;19.77;;;;;;;;;;6277076;22;20178;-79
2021/03/02 14:41:33;;;;;;;47.83;19.52;;;;;;;;;;6296845;22;20211;-79
2021/03/02 14:44:39;;;;;;;51.30;20.10;;;;;;;;;;6305498;22;20199;-80
2021/03/02 14:47:47;;;;;;;44.95;19.67;;;;;;;;;;6287780;22;20168;-80
2021/03/02 14:50:52;;;;;;;48.92;19.20;;;;;;;;;;6287399;22;20395;-80
2021/03/02 14:54:00;;;;;;;44.85;19.77;;;;;;;;;;6302680;22;20249;-80
2021/03/02 14:57:08;;;;;;;54.33;20.05;;;;;;;;;;6277617;22;20224;-79
2021/03/02 15:00:14;;;;;;;49.75;19.80;;;;;;;;;;6273456;22;20222;-80
2021/03/02 15:03:19;;;;;;;66.30;20.08;;;;;;;;;;6267683;22;20188;-81
2021/03/02 15:06:23;;;;;;;44.42;18.65;;;;;;;;;;6269713;22;20251;-81
2021/03/02 15:09:28;;;;;;;51.85;19.05;;;;;;;;;;6269448;22;20213;-81
2021/03/02 15:12:34;;;;;;;43.78;18.52;;;;;;;;;;6267562;22;20175;-81
2021/03/02 15:15:39;;;;;;;46.55;18.27;;;;;;;;;;6269329;22;20231;-81
2021/03/02 15:18:43;;;;;;;44.22;18.92;;;;;;;;;;6288466;22;20173;-80
2021/03/02 15:21:48;;;;;;;49.95;18.55;;;;;;;;;;6269667;22;20609;-81
2021/03/02 15:24:54;;;;;;;43.15;18.83;;;;;;;;;;6288674;22;20162;-81
2021/03/02 15:28:00;;;;;;;45.97;17.52;;;;;;;;;;6269706;22;20186;-81
2021/03/02 15:31:32;;;;;;;55.67;18.60;;;;;;;;;;6277680;22;20173;-79
2021/03/02 15:34:37;;;;;;;45.70;18.00;;;;;;;;;;6274222;22;20217;-80
2021/03/02 15:37:42;;;;;;;59.38;18.98;;;;;;;;;;6270794;22;20173;-82
2021/03/02 15:40:48;;;;;;;44.50;18.30;;;;;;;;;;6270997;22;20226;-80
2021/03/02 15:43:54;;;;;;;42.75;18.95;;;;;;;;;;6271556;22;20312;-82
2021/03/02 15:46:58;;;;;;;44.25;18.58;;;;;;;;;;6290550;22;20252;-81
2021/03/02 15:50:05;;;;;;;47.95;19.65;;;;;;;;;;6272601;22;20201;-80
2021/03/02 15:53:11;;;;;;;46.13;20.10;;;;;;;;;;6294704;22;20253;-81
2021/03/02 15:56:16;;;;;;;40.22;18.95;;;;;;;;;;6272675;22;20212;-81
2021/03/02 15:59:21;;;;;;;45.35;18.58;;;;;;;;;;6269596;22;20197;-81
2021/03/02 16:02:27;;;;;;;48.88;20.58;;;;;;;;;;6268738;22;20250;-80
2021/03/02 16:05:33;;;;;;;50.53;19.45;;;;;;;;;;6274594;22;20705;-82
2021/03/02 16:08:41;;;;;;;54.03;20.90;;;;;;;;;;6285592;22;20188;-79
2021/03/02 16:11:47;;;;;;;60.45;20.77;;;;;;;;;;6269949;22;20184;-80
2021/03/02 16:14:54;;;;;;;56.80;21.02;;;;;;;;;;6288685;22;20214;-79
2021/03/02 16:17:59;;;;;;;50.22;20.55;;;;;;;;;;6268141;22;20521;-79
2021/03/02 16:21:04;;;;;;;55.50;20.48;;;;;;;;;;6266994;22;20193;-81
2021/03/02 16:24:11;;;;;;;55.75;21.77;;;;;;;;;;6271197;22;20165;-81
2021/03/02 16:27:22;;;;;;;57.05;21.92;;;;;;;;;;6273707;22;20205;-81
2021/03/02 16:30:28;;;;;;;53.42;20.52;;;;;;;;;;6293503;22;20218;-83
2021/03/02 16:33:34;;;;;;;57.45;20.85;;;;;;;;;;6283083;22;20190;-78
2021/03/02 16:36:39;;;;;;;61.95;21.35;;;;;;;;;;6302940;22;20216;-81
2021/03/02 16:39:44;;;;;;;54.30;20.02;;;;;;;;;;6278119;22;20170;-81
2021/03/02 16:42:49;;;;;;;54.38;19.90;;;;;;;;;;6270541;22;20188;-82
2021/03/02 16:45:59;;;;;;;57.42;20.77;;;;;;;;;;6289149;22;20221;-82
2021/03/02 16:49:11;;;;;;;63.35;21.05;;;;;;;;;;6266770;22;20173;-81
2021/03/02 16:52:19;;;;;;;57.43;19.63;;;;;;;;;;6269021;22;20208;-81
2021/03/02 16:55:25;;;;;;;54.70;19.93;;;;;;;;;;6287407;22;20201;-82
2021/03/02 16:58:30;;;;;;;58.97;20.77;;;;;;;;;;6272920;22;20174;-82
2021/03/02 17:01:37;;;;;;;55.47;20.20;;;;;;;;;;6269987;22;20197;-83
2021/03/02 17:04:43;;;;;;;68.23;21.43;;;;;;;;;;6271049;22;20173;-80
2021/03/02 17:07:49;;;;;;;56.07;21.20;;;;;;;;;;6272144;22;20221;-81
2021/03/02 17:10:54;;;;;;;54.93;20.17;;;;;;;;;;6292218;22;20245;-81
2021/03/02 17:13:59;;;;;;;53.30;19.73;;;;;;;;;;6274767;22;20208;-82
2021/03/02 17:17:05;;;;;;;56.53;20.23;;;;;;;;;;6296947;22;20216;-83
2021/03/02 17:20:11;;;;;;;64.07;20.67;;;;;;;;;;6301378;22;20241;-82
2021/03/02 17:23:16;;;;;;;52.67;20.27;;;;;;;;;;6298623;22;20871;-81
2021/03/02 17:26:24;;;;;;;53.00;19.07;;;;;;;;;;6279497;22;20221;-83
2021/03/02 17:29:28;;;;;;;64.47;22.13;;;;;;;;;;6275116;22;20178;-80
2021/03/02 17:32:34;;;;;;;55.80;19.27;;;;;;;;;;6276226;22;20242;-80
2021/03/02 17:35:39;;;;;;;56.63;19.90;;;;;;;;;;6277614;22;20197;-81
2021/03/02 17:38:43;;;;;;;56.13;21.13;;;;;;;;;;6276045;22;20173;-82
2021/03/02 17:41:48;;;;;;;57.30;21.10;;;;;;;;;;6272043;22;20169;-83
2021/03/02 17:44:52;;;;;;;55.03;20.10;;;;;;;;;;6290090;22;20173;-81
2021/03/02 17:47:58;;;;;;;52.80;19.80;;;;;;;;;;6277899;22;20224;-81
2021/03/02 17:51:02;;;;;;;53.50;20.17;;;;;;;;;;6281172;22;20193;-83
2021/03/02 17:54:10;;;;;;;50.83;20.13;;;;;;;;;;6274671;22;20194;-86
2021/03/02 17:57:15;;;;;;;61.83;22.33;;;;;;;;;;6296919;22;20201;-83
2021/03/02 18:00:21;;;;;;;58.30;21.97;;;;;;;;;;6279999;22;20176;-83
2021/03/02 18:03:27;;;;;;;59.57;23.17;;;;;;;;;;6280053;22;20166;-82
2021/03/02 18:06:32;;;;;;;55.53;21.30;;;;;;;;;;6289361;22;20255;-83
2021/03/02 18:09:38;;;;;;;58.50;22.57;;;;;;;;;;6275471;22;20170;-82
2021/03/02 18:12:46;;;;;;;59.37;21.57;;;;;;;;;;6277796;22;20189;-83
2021/03/02 18:15:50;;;;;;;53.70;20.87;;;;;;;;;;6276585;22;20213;-83
2021/03/02 18:18:56;;;;;;;58.00;23.20;;;;;;;;;;6275109;22;20174;-83
2021/03/02 18:22:01;;;;;;;61.27;22.47;;;;;;;;;;6299385;22;20173;-83
2021/03/02 18:25:07;;;;;;;59.93;21.67;;;;;;;;;;6288025;22;20173;-83
2021/03/02 18:31:45;;;;;;;60.40;21.87;;;;;;;;;;6306340;22;20149;-81
2021/03/02 18:34:51;;;;;;;53.57;20.03;;;;;;;;;;6283609;22;20209;-81
2021/03/02 18:37:56;;;;;;;59.33;20.93;;;;;;;;;;6278774;22;20177;-82
2021/03/02 18:41:03;;;;;;;51.90;20.33;;;;;;;;;;6303721;22;20157;-80
2021/03/02 18:44:08;;;;;;;50.23;20.40;;;;;;;;;;6277169;22;20173;-83
2021/03/02 18:47:13;;;;;;;56.83;19.87;;;;;;;;;;6266778;22;20769;-80
2021/03/02 18:50:20;;;;;;;62.57;24.27;;;;;;;;;;6291073;22;20186;-80
2021/03/02 18:53:26;;;;;;;67.60;25.63;;;;;;;;;;6288951;22;20241;-82
2021/03/02 18:56:31;;;;;;;64.33;22.50;;;;;;;;;;6290732;22;20205;-82
2021/03/02 18:59:36;;;;;;;54.00;19.63;;;;;;;;;;6288008;22;20255;-82
2021/03/02 19:02:40;;;;;;;56.30;20.03;;;;;;;;;;6270674;22;20177;-80
2021/03/02 19:05:45;;;;;;;53.27;20.40;;;;;;;;;;6269932;22;20266;-81
2021/03/02 19:08:53;;;;;;;58.17;20.93;;;;;;;;;;6269478;22;20174;-81
2021/03/02 19:11:58;;;;;;;57.37;20.30;;;;;;;;;;6270493;22;20260;-81
2021/03/02 19:15:03;;;;;;;56.17;21.83;;;;;;;;;;6270054;22;20553;-81
2021/03/02 19:18:08;;;;;;;57.03;21.40;;;;;;;;;;6287526;22;20506;-82
2021/03/02 19:21:14;;;;;;;55.00;19.57;;;;;;;;;;6269969;22;20221;-82
2021/03/02 19:24:20;;;;;;;57.93;21.20;;;;;;;;;;6272505;22;20174;-79
2021/03/02 19:27:25;;;;;;;59.80;21.70;;;;;;;;;;6277806;22;20626;-79
2021/03/02 19:30:29;;;;;;;57.20;21.10;;;;;;;;;;6297001;22;20222;-81
2021/03/02 19:33:34;;;;;;;63.00;22.33;;;;;;;;;;6283334;22;20174;-81
2021/03/02 19:36:42;;;;;;;54.57;21.70;;;;;;;;;;6293967;22;20205;-80
2021/03/02 19:39:50;;;;;;;60.20;20.57;;;;;;;;;;6292371;22;20215;-81
2021/03/02 19:42:55;;;;;;;54.97;20.60;;;;;;;;;;6278255;22;20192;-80
2021/03/02 19:46:00;;;;;;;56.83;21.80;;;;;;;;;;6272791;22;20820;-81
2021/03/02 19:49:04;;;;;;;59.07;21.17;;;;;;;;;;6270383;22;20174;-80
2021/03/02 19:52:12;;;;;;;55.60;20.20;;;;;;;;;;6271500;22;20189;-80
2021/03/02 19:55:17;;;;;;;55.57;20.67;;;;;;;;;;6278457;22;20246;-79
2021/03/02 19:58:21;;;;;;;72.73;25.30;;;;;;;;;;6298565;22;20170;-80
2021/03/02 20:01:26;;;;;;;63.67;24.23;;;;;;;;;;6277578;22;20174;-82
2021/03/02 20:04:31;;;;;;;56.93;21.80;;;;;;;;;;6277453;22;20197;-81
2021/03/02 20:07:37;;;;;;;58.47;21.93;;;;;;;;;;6276399;22;20245;-82
2021/03/02 20:10:42;;;;;;;55.20;21.90;;;;;;;;;;6276244;22;20242;-82
2021/03/02 20:13:47;;;;;;;58.93;22.23;;;;;;;;;;6294847;22;20250;-80
2021/03/02 20:16:52;;;;;;;57.03;20.57;;;;;;;;;;6276435;22;20721;-81
2021/03/02 20:23:50;;;;;;;54.40;20.60;;;;;;;;;;6284947;22;20157;-81
2021/03/02 20:26:55;;;;;;;57.73;20.17;;;;;;;;;;6280284;22;20209;-81
2021/03/02 20:30:00;;;;;;;57.93;20.83;;;;;;;;;;6293200;22;20527;-81
2021/03/02 20:33:05;;;;;;;58.00;21.00;;;;;;;;;;6295590;22;20166;-82
2021/03/02 20:36:09;;;;;;;57.43;21.50;;;;;;;;;;6280685;22;20189;-81
2021/03/02 20:39:15;;;;;;;53.70;21.43;;;;;;;;;;6278870;22;20242;-82
2021/03/02 20:42:20;;;;;;;56.10;21.53;;;;;;;;;;6277193;22;20221;-80
2021/03/02 20:45:24;;;;;;;67.17;21.90;;;;;;;;;;6280816;22;20204;-80
2021/03/02 20:48:29;;;;;;;61.70;23.10;;;;;;;;;;6278838;22;20208;-80
2021/03/02 20:51:34;;;;;;;57.27;21.80;;;;;;;;;;6297781;22;20197;-83
2021/03/02 20:54:39;;;;;;;70.03;23.10;;;;;;;;;;6278521;22;20213;-82
2021/03/02 20:57:44;;;;;;;62.03;21.33;;;;;;;;;;6296116;22;20237;-82
2021/03/02 21:00:49;;;;;;;64.80;21.90;;;;;;;;;;6296186;22;20190;-82
2021/03/02 21:03:55;;;;;;;59.73;22.60;;;;;;;;;;6273689;22;20166;-81
2021/03/02 21:07:00;;;;;;;67.90;23.37;;;;;;;;;;6269166;22;20597;-82
2021/03/02 21:10:08;;;;;;;60.80;21.53;;;;;;;;;;6275383;22;20189;-82
2021/03/02 21:13:13;;;;;;;71.00;23.50;;;;;;;;;;6272757;22;20181;-83
2021/03/02 21:16:18;;;;;;;72.23;24.93;;;;;;;;;;6289904;22;20205;-82
2021/03/02 21:19:22;;;;;;;69.23;23.40;;;;;;;;;;6271206;22;20639;-81
2021/03/02 21:22:28;;;;;;;75.20;25.30;;;;;;;;;;6296092;22;20170;-80
2021/03/02 21:25:34;;;;;;;63.77;22.77;;;;;;;;;;6294310;22;20298;-82
2021/03/02 21:28:38;;;;;;;65.23;22.67;;;;;;;;;;6271413;22;20281;-82
2021/03/02 21:31:43;;;;;;;65.57;23.43;;;;;;;;;;6289996;22;20678;-83
2021/03/02 21:34:48;;;;;;;66.63;24.03;;;;;;;;;;6280776;22;20182;-81
2021/03/02 21:37:52;;;;;;;68.33;22.87;;;;;;;;;;6283221;22;20170;-81
2021/03/02 21:40:59;;;;;;;60.37;22.30;;;;;;;;;;6278653;22;20856;-81
2021/03/02 21:44:09;;;;;;;68.33;22.70;;;;;;;;;;6294486;22;20477;-83
2021/03/02 21:47:13;;;;;;;67.70;24.07;;;;;;;;;;6274090;22;20232;-83
2021/03/02 21:50:21;;;;;;;72.47;25.20;;;;;;;;;;6275493;22;20272;-83
2021/03/02 21:53:26;;;;;;;82.33;26.60;;;;;;;;;;6273925;22;20189;-84
2021/03/02 21:56:32;;;;;;;81.30;26.63;;;;;;;;;;6276853;22;20236;-83
2021/03/02 21:59:37;;;;;;;93.67;30.33;;;;;;;;;;6297908;22;20188;-80
2021/03/02 22:02:41;;;;;;;65.07;25.83;;;;;;;;;;6273853;22;20244;-83
2021/03/02 22:05:46;;;;;;;69.53;23.10;;;;;;;;;;6294205;22;20201;-84
2021/03/02 22:08:51;;;;;;;69.90;23.70;;;;;;;;;;6277814;22;20189;-83
2021/03/02 22:11:58;;;;;;;74.03;25.00;;;;;;;;;;6296098;22;20595;-82
2021/03/02 22:15:03;;;;;;;73.43;23.40;;;;;;;;;;6279051;22;20221;-85
2021/03/02 22:18:08;;;;;;;62.33;24.03;;;;;;;;;;6277871;22;20646;-83
2021/03/02 22:21:13;;;;;;;66.10;23.77;;;;;;;;;;6275361;22;20374;-80
2021/03/02 22:24:18;;;;;;;71.03;24.50;;;;;;;;;;6278425;22;20174;-81
2021/03/02 22:27:23;;;;;;;68.57;23.90;;;;;;;;;;6277269;22;20225;-82
2021/03/02 22:30:28;;;;;;;70.07;24.10;;;;;;;;;;6277451;22;20173;-82
2021/03/02 22:33:34;;;;;;;71.93;23.57;;;;;;;;;;6277854;22;20172;-82
2021/03/02 22:36:39;;;;;;;72.07;25.57;;;;;;;;;;6274570;22;20244;-82
2021/03/02 22:39:44;;;;;;;71.93;25.00;;;;;;;;;;6276010;22;20193;-83
2021/03/02 22:42:49;;;;;;;67.83;23.80;;;;;;;;;;6275618;22;20196;-83
2021/03/02 22:45:54;;;;;;;62.07;22.17;;;;;;;;;;6293724;22;20270;-82
2021/03/02 22:48:58;;;;;;;68.77;22.67;;;;;;;;;;6277724;22;20174;-83
2021/03/02 22:52:03;;;;;;;67.57;23.90;;;;;;;;;;6277640;22;20221;-82